Time;durP1;ratioP1;P1;durP2;ratioP2;P2;SDS_P1;SDS_P2;PMS_P1;PMS_P2;Temp;Humidity;BMP_temperature;BMP_pressure;BME280_temperature;BME280_humidity;BME280_pressure;Samples;Min_cycle;Max_cycle;Signal;HPM_P1;HPM_P2
2021/05/25 00:01:12;;;;;;;1.95;1.13;;;9.90;99.90;;;;;;5076172;28;20063;-80
2021/05/25 00:03:37;;;;;;;3.03;1.15;;;9.90;99.90;;;;;;5071881;28;20150;-81
2021/05/25 00:06:03;;;;;;;1.17;0.73;;;9.90;99.90;;;;;;5073587;28;20476;-80
2021/05/25 00:08:29;;;;;;;3.50;0.90;;;9.80;99.90;;;;;;5073436;28;20066;-81
2021/05/25 00:10:55;;;;;;;0.82;0.82;;;9.80;99.90;;;;;;5077273;28;20079;-81
2021/05/25 00:13:21;;;;;;;1.20;0.70;;;9.80;99.90;;;;;;5071482;28;20362;-81
2021/05/25 00:15:52;;;;;;;5.03;1.27;;;9.70;99.90;;;;;;5071681;28;20126;-80
2021/05/25 00:18:18;;;;;;;0.75;0.52;;;9.70;99.90;;;;;;5072122;28;20024;-81
2021/05/25 00:20:44;;;;;;;0.90;0.45;;;9.60;99.90;;;;;;5058609;28;20134;-80
2021/05/25 00:23:09;;;;;;;0.60;0.57;;;9.60;99.90;;;;;;5065952;28;20032;-81
2021/05/25 00:25:35;;;;;;;0.52;0.52;;;9.60;99.90;;;;;;5067489;28;20033;-80
2021/05/25 00:28:01;;;;;;;0.63;0.40;;;9.50;99.90;;;;;;5073992;28;20032;-80
2021/05/25 00:30:26;;;;;;;1.27;0.75;;;9.50;99.90;;;;;;5071456;28;20017;-81
2021/05/25 00:32:52;;;;;;;2.75;0.43;;;9.60;99.90;;;;;;5069173;28;20023;-81
2021/05/25 00:35:18;;;;;;;2.22;0.50;;;9.50;99.90;;;;;;5092125;28;20108;-81
2021/05/25 00:37:44;;;;;;;1.70;0.60;;;9.50;99.90;;;;;;5075554;28;20033;-81
2021/05/25 00:40:11;;;;;;;1.27;0.70;;;9.50;99.90;;;;;;5088728;28;20076;-80
2021/05/25 00:42:38;;;;;;;2.85;0.80;;;9.50;99.90;;;;;;5092872;28;20001;-80
2021/05/25 00:45:06;;;;;;;0.57;0.57;;;9.50;99.90;;;;;;5092110;28;20111;-79
2021/05/25 00:47:33;;;;;;;;;;;9.50;99.90;;;;;;5098180;28;20048;-80
2021/05/25 00:50:11;;;;;;;2.83;0.50;;;9.40;99.90;;;;;;5091427;28;19968;-81
2021/05/25 00:52:39;;;;;;;1.63;0.60;;;9.40;99.90;;;;;;5094612;28;20283;-80
2021/05/25 00:55:07;;;;;;;2.25;1.00;;;9.50;99.90;;;;;;5078586;28;20036;-80
2021/05/25 00:57:34;;;;;;;0.75;0.40;;;9.50;99.90;;;;;;5077439;28;20392;-81
2021/05/25 01:00:00;;;;;;;0.70;0.57;;;9.50;99.90;;;;;;5075724;28;20116;-81
2021/05/25 01:02:26;;;;;;;3.13;0.80;;;9.50;99.90;;;;;;5075991;28;20032;-81
2021/05/25 01:04:51;;;;;;;4.47;0.68;;;9.50;99.90;;;;;;5061935;28;20048;-81
2021/05/25 01:07:17;;;;;;;0.93;0.40;;;9.50;99.90;;;;;;5071680;28;20047;-80
2021/05/25 01:09:43;;;;;;;0.98;0.57;;;9.50;99.90;;;;;;5058121;28;20420;-81
2021/05/25 01:12:10;;;;;;;2.03;0.50;;;9.50;99.90;;;;;;5071016;28;20117;-81
2021/05/25 01:14:45;;;;;;;2.70;0.65;;;9.50;99.90;;;;;;5072801;28;20031;-81
2021/05/25 01:17:11;;;;;;;0.80;0.80;;;9.50;99.90;;;;;;5064985;28;20033;-81
2021/05/25 01:19:37;;;;;;;0.93;0.82;;;9.50;99.90;;;;;;5068047;28;20095;-80
2021/05/25 01:22:02;;;;;;;6.25;1.35;;;9.50;99.90;;;;;;5058988;28;20049;-81
2021/05/25 01:24:32;;;;;;;1.25;0.80;;;9.50;99.90;;;;;;5075283;28;20024;-80
2021/05/25 01:27:06;;;;;;;2.30;1.20;;;9.50;99.90;;;;;;5064701;28;20385;-81
2021/05/25 01:29:33;;;;;;;2.55;0.85;;;9.50;99.90;;;;;;5066727;28;20025;-80
2021/05/25 01:31:58;;;;;;;2.10;1.13;;;9.40;99.90;;;;;;5072087;28;20032;-81
2021/05/25 01:34:24;;;;;;;1.42;1.33;;;9.40;99.90;;;;;;5075036;28;20069;-81
2021/05/25 01:36:50;;;;;;;2.20;1.50;;;9.40;99.90;;;;;;5058962;28;20514;-81
2021/05/25 01:39:16;;;;;;;2.22;1.50;;;9.40;99.90;;;;;;5066863;28;20484;-81
2021/05/25 01:41:42;;;;;;;6.90;3.50;;;9.40;99.90;;;;;;5073912;28;20083;-81
2021/05/25 01:44:08;;;;;;;2.40;2.20;;;9.40;99.90;;;;;;5068191;28;20025;-81
2021/05/25 01:46:34;;;;;;;3.95;2.47;;;9.40;99.90;;;;;;5071408;28;20028;-81
2021/05/25 01:49:00;;;;;;;9.60;3.28;;;9.40;99.90;;;;;;5066375;28;20071;-81
2021/05/25 01:51:26;;;;;;;3.50;2.50;;;9.40;99.90;;;;;;5073620;28;20365;-81
2021/05/25 01:53:51;;;;;;;4.47;3.00;;;9.40;99.90;;;;;;5070022;28;20083;-81
2021/05/25 01:56:17;;;;;;;5.53;2.92;;;9.40;99.90;;;;;;5070095;28;20029;-81
2021/05/25 01:58:43;;;;;;;4.95;3.17;;;9.40;99.90;;;;;;5070279;28;20497;-82
2021/05/25 02:01:11;;;;;;;2.83;2.50;;;9.30;99.90;;;;;;5071227;28;20052;-81
2021/05/25 02:03:39;;;;;;;4.93;3.42;;;9.30;99.90;;;;;;5073997;28;20028;-81
2021/05/25 02:06:06;;;;;;;5.03;3.25;;;9.30;99.90;;;;;;5072046;28;20024;-81
2021/05/25 02:08:32;;;;;;;2.70;2.50;;;9.30;99.90;;;;;;5073104;28;20048;-80
2021/05/25 02:11:00;;;;;;;6.10;4.10;;;9.20;99.90;;;;;;5075410;28;20021;-81
2021/05/25 02:13:31;;;;;;;5.93;3.50;;;9.20;99.90;;;;;;5069942;28;20051;-80
2021/05/25 02:15:59;;;;;;;5.32;3.80;;;9.10;99.90;;;;;;5065227;28;20043;-81
2021/05/25 02:18:28;;;;;;;6.72;3.75;;;9.10;99.90;;;;;;5072911;28;20021;-80
2021/05/25 02:20:56;;;;;;;6.40;4.07;;;9.10;99.90;;;;;;5069771;28;20123;-81
2021/05/25 02:23:22;;;;;;;7.97;4.20;;;9.10;99.90;;;;;;5073210;28;20028;-81
2021/05/25 02:25:47;;;;;;;8.60;3.80;;;9.00;99.90;;;;;;5073250;28;20086;-81
2021/05/25 02:28:13;;;;;;;9.88;4.15;;;9.00;99.90;;;;;;5056766;28;20017;-81
2021/05/25 02:30:40;;;;;;;10.38;4.50;;;9.00;99.90;;;;;;5070604;28;20020;-80
2021/05/25 02:33:12;;;;;;;13.45;4.65;;;9.00;99.90;;;;;;5069308;28;20029;-80
2021/05/25 02:35:40;;;;;;;10.68;4.72;;;9.00;99.90;;;;;;5054180;28;20029;-81
2021/05/25 02:38:07;;;;;;;14.38;6.25;;;9.00;99.90;;;;;;5066232;28;20035;-81
2021/05/25 02:40:34;;;;;;;9.88;4.45;;;9.00;99.90;;;;;;5081340;28;20051;-81
2021/05/25 02:43:00;;;;;;;6.78;4.25;;;9.00;99.90;;;;;;5091114;28;20028;-81
2021/05/25 02:45:26;;;;;;;9.13;4.63;;;9.00;99.90;;;;;;5088462;28;20037;-80
2021/05/25 02:50:36;;;;;;;6.65;4.43;;;8.90;99.90;;;;;;5089924;28;20015;-81
2021/05/25 02:53:03;;;;;;;8.02;5.53;;;8.90;99.90;;;;;;5097137;28;20021;-79
2021/05/25 02:55:34;;;;;;;8.30;4.53;;;8.90;99.90;;;;;;5084152;28;20005;-80
2021/05/25 02:58:01;;;;;;;8.80;4.63;;;8.90;99.90;;;;;;5088954;28;20012;-80
2021/05/25 03:00:33;;;;;;;8.75;4.95;;;8.90;99.90;;;;;;5079494;28;20093;-80
2021/05/25 03:02:58;;;;;;;10.77;4.53;;;8.80;99.90;;;;;;5075804;28;20033;-80
2021/05/25 03:05:25;;;;;;;10.30;5.03;;;8.80;99.90;;;;;;5077674;28;20389;-80
2021/05/25 03:07:57;;;;;;;8.47;5.27;;;8.80;99.90;;;;;;5064624;28;20502;-80
2021/05/25 03:10:25;;;;;;;11.55;5.40;;;8.80;99.90;;;;;;5073828;28;20349;-80
2021/05/25 03:12:52;;;;;;;15.20;5.30;;;8.80;99.90;;;;;;5067495;28;20045;-80
2021/05/25 03:15:23;;;;;;;8.88;5.45;;;8.80;99.90;;;;;;5071125;28;20025;-80
2021/05/25 03:17:49;;;;;;;13.43;5.55;;;8.80;99.90;;;;;;5058286;28;20025;-80
2021/05/25 03:20:16;;;;;;;6.55;4.80;;;8.80;99.90;;;;;;5062010;28;20020;-80
2021/05/25 03:22:43;;;;;;;7.82;5.00;;;8.70;99.90;;;;;;5073713;28;20122;-79
2021/05/25 03:25:10;;;;;;;9.45;5.65;;;8.70;99.90;;;;;;5057791;28;20082;-81
2021/05/25 03:27:37;;;;;;;5.68;4.30;;;8.70;99.90;;;;;;5060496;28;20548;-80
2021/05/25 03:30:08;;;;;;;6.47;4.60;;;8.70;99.90;;;;;;5070733;28;20024;-80
2021/05/25 03:32:35;;;;;;;9.07;5.10;;;8.70;99.90;;;;;;5070443;28;20112;-81
2021/05/25 03:35:01;;;;;;;10.70;5.63;;;8.70;99.90;;;;;;5070147;28;20118;-80
2021/05/25 03:37:26;;;;;;;7.20;4.38;;;8.60;99.90;;;;;;5063948;28;20021;-80
2021/05/25 03:39:52;;;;;;;11.25;5.30;;;8.60;99.90;;;;;;5055286;28;20129;-80
2021/05/25 03:42:17;;;;;;;9.63;5.20;;;8.60;99.90;;;;;;5073524;28;20032;-80
2021/05/25 03:44:44;;;;;;;8.40;5.20;;;8.60;99.90;;;;;;5073513;28;20029;-79
2021/05/25 03:47:09;;;;;;;10.00;4.88;;;8.60;99.90;;;;;;5069487;28;20112;-80
2021/05/25 03:49:35;;;;;;;7.35;4.60;;;8.50;99.90;;;;;;5061132;28;20082;-80
2021/05/25 03:52:01;;;;;;;9.52;4.82;;;8.50;99.90;;;;;;5058264;28;20029;-79
2021/05/25 03:54:35;;;;;;;7.60;5.70;;;8.60;99.90;;;;;;5071931;28;20035;-80
2021/05/25 03:57:23;;;;;;;8.15;4.55;;;8.60;99.90;;;;;;5068569;28;20047;-80
2021/05/25 03:59:49;;;;;;;9.43;6.00;;;8.50;99.90;;;;;;5072048;28;20468;-79
2021/05/25 04:02:15;;;;;;;7.55;4.75;;;8.50;99.90;;;;;;5071416;28;20119;-79
2021/05/25 04:04:40;;;;;;;9.38;4.88;;;8.60;99.90;;;;;;5068770;28;20059;-79
2021/05/25 04:07:06;;;;;;;7.43;4.68;;;8.60;99.90;;;;;;5070717;28;20126;-80
2021/05/25 04:09:32;;;;;;;6.72;4.88;;;8.60;99.90;;;;;;5057294;28;20075;-79
2021/05/25 04:11:57;;;;;;;6.03;5.10;;;8.50;99.90;;;;;;5070485;28;20126;-80
2021/05/25 04:14:23;;;;;;;8.00;4.38;;;8.50;99.90;;;;;;5065135;28;20051;-80
2021/05/25 04:16:49;;;;;;;7.00;4.90;;;8.50;99.90;;;;;;5071563;28;20112;-79
2021/05/25 04:19:14;;;;;;;10.35;4.95;;;8.60;99.90;;;;;;5069098;28;20116;-79
2021/05/25 04:21:40;;;;;;;9.32;5.22;;;8.60;99.90;;;;;;5069010;28;20143;-80
2021/05/25 04:24:06;;;;;;;6.18;5.03;;;8.60;99.90;;;;;;5064350;28;20021;-80
2021/05/25 04:26:32;;;;;;;15.68;4.93;;;8.60;99.90;;;;;;5054273;28;20041;-79
2021/05/25 04:28:57;;;;;;;7.75;5.25;;;8.70;99.90;;;;;;5070870;28;20033;-79
2021/05/25 04:31:23;;;;;;;8.48;4.93;;;8.70;99.90;;;;;;5062845;28;20525;-79
2021/05/25 04:33:49;;;;;;;5.85;5.20;;;8.70;99.90;;;;;;5067411;28;20021;-79
2021/05/25 04:36:17;;;;;;;8.55;4.30;;;8.80;99.90;;;;;;5072003;28;20033;-80
2021/05/25 04:38:43;;;;;;;11.27;4.63;;;8.80;99.90;;;;;;5074915;28;20025;-80
2021/05/25 04:41:09;;;;;;;5.70;4.15;;;8.80;99.90;;;;;;5074803;28;20032;-80
2021/05/25 04:43:35;;;;;;;7.50;4.63;;;8.70;99.90;;;;;;5074782;28;20021;-80
2021/05/25 04:46:01;;;;;;;11.38;5.22;;;8.80;99.90;;;;;;5076301;28;20051;-80
2021/05/25 04:48:26;;;;;;;10.38;4.97;;;8.80;99.90;;;;;;5060933;28;20033;-80
2021/05/25 04:50:52;;;;;;;7.63;4.90;;;8.80;99.90;;;;;;5088983;28;20502;-80
2021/05/25 04:53:18;;;;;;;9.95;5.43;;;8.80;99.90;;;;;;5088879;28;20380;-80
2021/05/25 04:55:43;;;;;;;14.30;6.40;;;8.80;99.90;;;;;;5090393;28;20036;-80
2021/05/25 04:58:09;;;;;;;8.40;5.32;;;8.90;99.90;;;;;;5083531;28;20016;-80
2021/05/25 05:00:35;;;;;;;11.40;5.28;;;8.90;99.90;;;;;;5093938;28;20024;-80
2021/05/25 05:03:01;;;;;;;8.98;4.93;;;9.00;99.90;;;;;;5092966;28;20043;-79
2021/05/25 05:05:26;;;;;;;15.23;5.35;;;9.00;99.90;;;;;;5090552;28;20040;-80
2021/05/25 05:07:52;;;;;;;8.77;5.05;;;9.10;99.90;;;;;;5096814;28;20108;-78
2021/05/25 05:10:18;;;;;;;5.60;4.65;;;9.10;99.90;;;;;;5089875;28;20008;-79
2021/05/25 05:12:44;;;;;;;8.80;5.75;;;9.10;99.90;;;;;;5081106;28;20048;-80
2021/05/25 05:15:10;;;;;;;6.70;5.60;;;9.20;99.90;;;;;;5082991;28;20082;-80
2021/05/25 05:17:38;;;;;;;10.43;5.90;;;9.20;99.90;;;;;;5075318;28;20028;-79
2021/05/25 05:20:06;;;;;;;8.57;5.82;;;9.30;99.90;;;;;;5063595;28;20041;-80
2021/05/25 05:22:31;;;;;;;;;;;9.40;99.90;;;;;;5066122;28;20040;-79
2021/05/25 05:24:57;;;;;;;8.93;5.10;;;9.60;99.90;;;;;;5068147;28;19915;-79
2021/05/25 05:27:22;;;;;;;13.77;5.53;;;9.90;99.90;;;;;;5070890;28;20028;-79
2021/05/25 05:29:48;;;;;;;8.07;4.80;;;10.50;99.90;;;;;;5070145;28;20462;-78
2021/05/25 05:32:14;;;;;;;5.63;3.92;;;11.60;99.90;;;;;;5067216;28;20033;-79
2021/05/25 05:34:40;;;;;;;9.05;4.07;;;11.90;99.90;;;;;;5074036;28;20469;-79
2021/05/25 05:37:06;;;;;;;6.57;4.43;;;11.50;99.90;;;;;;5071491;28;20035;-78
2021/05/25 05:39:32;;;;;;;6.03;4.50;;;11.20;99.90;;;;;;5064535;28;20033;-78
2021/05/25 05:41:57;;;;;;;6.50;4.53;;;10.80;99.90;;;;;;5072706;28;20115;-79
2021/05/25 05:44:23;;;;;;;12.15;4.85;;;10.60;99.90;;;;;;5069089;28;20028;-79
2021/05/25 05:46:49;;;;;;;11.35;4.65;;;10.50;99.90;;;;;;5064528;28;20024;-78
2021/05/25 05:49:14;;;;;;;7.10;4.78;;;10.50;99.90;;;;;;5068402;28;20032;-78
2021/05/25 05:51:41;;;;;;;8.70;5.28;;;10.40;99.90;;;;;;5066507;28;20059;-78
2021/05/25 05:54:07;;;;;;;12.35;5.45;;;10.50;99.90;;;;;;5066124;28;20033;-79
2021/05/25 05:56:33;;;;;;;7.90;4.68;;;10.70;99.90;;;;;;5066198;28;20044;-78
2021/05/25 05:58:59;;;;;;;5.05;3.90;;;11.00;99.90;;;;;;5064140;28;20060;-79
2021/05/25 06:01:25;;;;;;;5.07;3.88;;;11.70;99.90;;;;;;5062203;28;20020;-79
2021/05/25 06:03:50;;;;;;;8.57;4.32;;;12.30;99.90;;;;;;5070215;28;20032;-80
2021/05/25 06:06:16;;;;;;;5.78;4.28;;;12.30;99.90;;;;;;5065195;28;20029;-80
2021/05/25 06:08:43;;;;;;;7.55;5.20;;;12.10;99.90;;;;;;5068831;28;20074;-80
2021/05/25 06:11:09;;;;;;;6.93;4.10;;;11.90;99.90;;;;;;5061212;28;20033;-79
2021/05/25 06:13:36;;;;;;;4.55;3.90;;;11.80;99.90;;;;;;5059018;28;20086;-79
2021/05/25 06:16:02;;;;;;;7.35;4.28;;;11.80;99.90;;;;;;5068311;28;20033;-80
2021/05/25 06:18:33;;;;;;;9.50;3.92;;;13.00;99.90;;;;;;5067766;28;20071;-79
2021/05/25 06:21:01;;;;;;;5.07;4.03;;;15.20;99.90;;;;;;5066817;28;20025;-80
2021/05/25 06:23:26;;;;;;;4.30;3.20;;;15.90;99.90;;;;;;5072630;28;20032;-80
2021/05/25 06:25:52;;;;;;;5.35;3.47;;;15.00;99.90;;;;;;5074331;28;20040;-80
2021/05/25 06:28:18;;;;;;;6.93;4.07;;;14.00;99.90;;;;;;5073150;28;20021;-80
2021/05/25 06:30:44;;;;;;;6.55;3.85;;;13.20;99.90;;;;;;5073498;28;20369;-80
2021/05/25 06:33:10;;;;;;;7.00;3.97;;;12.50;99.90;;;;;;5071535;28;20548;-79
2021/05/25 06:35:36;;;;;;;10.65;3.88;;;12.00;99.90;;;;;;5069743;28;20171;-80
2021/05/25 06:38:02;;;;;;;6.35;5.10;;;11.70;99.90;;;;;;5071497;28;20020;-79
2021/05/25 06:40:29;;;;;;;5.63;4.30;;;11.40;99.90;;;;;;5074608;28;20028;-79
2021/05/25 06:42:54;;;;;;;4.28;3.88;;;11.40;99.90;;;;;;5060452;28;20029;-79
2021/05/25 06:45:20;;;;;;;8.38;4.60;;;11.30;99.90;;;;;;5075973;28;20020;-82
2021/05/25 06:47:46;;;;;;;6.68;3.70;;;11.30;99.90;;;;;;5071114;28;20021;-82
2021/05/25 06:50:14;;;;;;;7.97;3.50;;;11.30;99.90;;;;;;5053751;28;20043;-79
2021/05/25 06:52:40;;;;;;;6.88;3.10;;;11.40;99.90;;;;;;5068127;28;20045;-80
2021/05/25 06:55:06;;;;;;;5.13;2.80;;;11.50;99.90;;;;;;5075666;28;20025;-79
2021/05/25 06:57:32;;;;;;;3.67;2.80;;;11.50;99.90;;;;;;5080556;28;20045;-78
2021/05/25 06:59:58;;;;;;;6.63;3.38;;;11.70;99.90;;;;;;5069897;28;20032;-77
2021/05/25 07:02:24;;;;;;;7.10;3.97;;;11.70;99.90;;;;;;5076406;28;20040;-79
2021/05/25 07:04:54;;;;;;;5.20;3.10;;;12.00;99.90;;;;;;5095572;28;20092;-78
2021/05/25 07:07:20;;;;;;;2.90;2.60;;;13.20;99.90;;;;;;5094050;28;20044;-75
2021/05/25 07:09:46;;;;;;;5.85;2.30;;;14.70;99.90;;;;;;5080348;28;20070;-78
2021/05/25 07:12:13;;;;;;;4.03;2.28;;;15.80;99.90;;;;;;5076918;28;20052;-78
2021/05/25 07:14:39;;;;;;;4.53;2.50;;;16.60;99.90;;;;;;5075158;28;20119;-78
2021/05/25 07:17:05;;;;;;;4.00;2.20;;;17.20;99.90;;;;;;5065795;28;20020;-78
2021/05/25 07:19:31;;;;;;;8.80;2.63;;;17.00;99.90;;;;;;5073986;28;20025;-79
2021/05/25 07:21:58;;;;;;;3.38;2.30;;;16.60;99.90;;;;;;5073294;28;20035;-77
2021/05/25 07:24:23;;;;;;;5.90;2.13;;;15.90;99.90;;;;;;5073838;28;20024;-78
2021/05/25 07:26:49;;;;;;;9.32;3.33;;;15.70;99.90;;;;;;5068919;28;20049;-78
2021/05/25 07:29:15;;;;;;;2.88;2.17;;;15.70;99.90;;;;;;5058980;28;20044;-78
2021/05/25 07:31:41;;;;;;;5.18;2.50;;;16.00;99.90;;;;;;5073095;28;20354;-78
2021/05/25 07:34:06;;;;;;;6.03;2.42;;;16.20;99.90;;;;;;5071585;28;20095;-77
2021/05/25 07:36:32;;;;;;;4.95;2.65;;;16.00;99.90;;;;;;5066560;28;20118;-79
2021/05/25 07:38:58;;;;;;;6.43;2.60;;;15.40;99.90;;;;;;5071143;28;20036;-76
2021/05/25 07:41:23;;;;;;;6.13;2.22;;;15.10;99.90;;;;;;5072043;28;20392;-78
2021/05/25 07:43:49;;;;;;;14.85;3.15;;;15.10;99.90;;;;;;5067522;28;20028;-78
2021/05/25 07:46:17;;;;;;;4.68;2.10;;;14.90;99.90;;;;;;5072809;28;20036;-77
2021/05/25 07:48:43;;;;;;;14.65;3.92;;;14.70;99.90;;;;;;5073020;28;20020;-80
2021/05/25 07:51:09;;;;;;;9.15;2.60;;;14.60;99.90;;;;;;5071271;28;20029;-79
2021/05/25 07:53:35;;;;;;;11.80;2.72;;;14.30;99.90;;;;;;5072734;28;20388;-79
2021/05/25 07:56:00;;;;;;;8.98;3.50;;;13.90;99.90;;;;;;5073425;28;20036;-79
2021/05/25 07:58:26;;;;;;;7.15;3.08;;;13.70;99.90;;;;;;5068357;28;20473;-80
2021/05/25 08:00:53;;;;;;;9.93;2.33;;;13.70;99.90;;;;;;5065912;28;20091;-79
2021/05/25 08:03:19;;;;;;;5.60;2.10;;;13.90;99.90;;;;;;5049805;28;20451;-79
2021/05/25 08:05:45;;;;;;;6.72;2.60;;;14.20;99.90;;;;;;5052205;28;20139;-79
2021/05/25 08:08:11;;;;;;;3.78;1.67;;;14.10;99.90;;;;;;5052919;28;20124;-79
2021/05/25 08:10:37;;;;;;;6.18;0.90;;;13.70;99.90;;;;;;5071512;28;20048;-77
2021/05/25 08:13:04;;;;;;;4.90;1.33;;;13.20;99.90;;;;;;5080538;28;20041;-78
2021/05/25 08:15:31;;;;;;;15.10;1.85;;;12.60;99.90;;;;;;5071907;28;20044;-78
2021/05/25 08:18:18;;;;;;;4.68;1.90;;;12.20;99.90;;;;;;5076031;28;20074;-79
2021/05/25 08:20:44;;;;;;;5.70;2.30;;;12.00;99.90;;;;;;5080794;28;20043;-78
2021/05/25 08:23:12;;;;;;;7.00;2.45;;;12.00;99.90;;;;;;5073965;28;20040;-79
2021/05/25 08:25:41;;;;;;;11.68;2.58;;;12.10;99.90;;;;;;5073532;28;20062;-79
2021/05/25 08:28:07;;;;;;;5.60;2.70;;;12.10;99.90;;;;;;5075539;28;20380;-79
2021/05/25 08:30:37;;;;;;;11.13;2.70;;;12.20;99.90;;;;;;5075181;28;20029;-79
2021/05/25 08:33:04;;;;;;;5.43;2.38;;;12.10;99.90;;;;;;5073177;28;20020;-80
2021/05/25 08:35:34;;;;;;;8.18;3.30;;;12.30;99.90;;;;;;5061097;28;20040;-79
2021/05/25 08:38:00;;;;;;;13.20;2.60;;;12.70;99.90;;;;;;5075309;28;20028;-79
2021/05/25 08:40:28;;;;;;;6.78;2.22;;;13.40;99.90;;;;;;5073908;28;20024;-79
2021/05/25 08:42:53;;;;;;;;;;;13.80;99.90;;;;;;5076815;28;20039;-80
2021/05/25 08:45:21;;;;;;;14.98;3.92;;;13.80;99.90;;;;;;5075313;28;19908;-79
2021/05/25 08:47:49;;;;;;;9.05;4.05;;;13.80;99.90;;;;;;5063858;28;20107;-79
2021/05/25 08:50:16;;;;;;;11.60;2.47;;;13.60;99.90;;;;;;5076220;28;20102;-79
2021/05/25 08:52:42;;;;;;;5.28;1.98;;;13.30;99.90;;;;;;5060064;28;20484;-81
2021/05/25 08:55:09;;;;;;;4.13;1.67;;;13.20;99.90;;;;;;5074575;28;20020;-80
2021/05/25 08:57:35;;;;;;;3.85;1.80;;;13.60;99.90;;;;;;5069246;28;20124;-80
2021/05/25 09:00:04;;;;;;;6.28;2.08;;;14.20;99.90;;;;;;5060656;28;20108;-81
2021/05/25 09:02:29;;;;;;;6.82;1.77;;;14.00;99.90;;;;;;5071164;28;20029;-79
2021/05/25 09:05:04;;;;;;;7.50;1.98;;;13.80;99.90;;;;;;5060739;28;20048;-78
2021/05/25 09:07:48;;;;;;;4.35;1.75;;;13.60;99.90;;;;;;5074544;28;20032;-77
2021/05/25 09:10:23;;;;;;;6.13;2.20;;;13.60;99.90;;;;;;5066286;28;20025;-78
2021/05/25 09:12:50;;;;;;;5.80;1.75;;;13.30;99.90;;;;;;5066286;28;20432;-76
2021/05/25 09:15:37;;;;;;;7.50;1.60;;;13.10;99.90;;;;;;5066852;28;20021;-76
2021/05/25 09:18:07;;;;;;;3.22;1.75;;;12.80;99.90;;;;;;5063003;28;20025;-78
2021/05/25 09:20:53;;;;;;;8.15;1.75;;;12.60;99.90;;;;;;5068206;28;20488;-77
2021/05/25 09:23:43;;;;;;;8.07;2.03;;;12.70;99.90;;;;;;5070231;28;20415;-77
2021/05/25 09:26:27;;;;;;;6.22;1.92;;;12.90;99.90;;;;;;5080080;28;20029;-78
2021/05/25 09:29:02;;;;;;;5.47;1.90;;;13.10;99.90;;;;;;5092265;28;20045;-80
2021/05/25 09:31:42;;;;;;;7.75;2.80;;;13.10;99.90;;;;;;5067052;28;20801;-77
2021/05/25 09:34:10;;;;;;;11.23;3.88;;;13.00;99.90;;;;;;5091730;28;20029;-77
2021/05/25 09:37:00;;;;;;;12.15;2.10;;;12.80;99.90;;;;;;5092829;28;20062;-78
2021/05/25 09:39:30;;;;;;;10.75;2.08;;;12.90;99.90;;;;;;5094395;28;20115;-77
2021/05/25 09:42:00;;;;;;;2.95;1.63;;;13.20;99.90;;;;;;5079042;28;20033;-79
2021/05/25 09:44:26;;;;;;;4.45;1.92;;;13.60;99.90;;;;;;5080080;28;20060;-78
2021/05/25 09:46:52;;;;;;;7.07;2.20;;;13.70;99.90;;;;;;5090338;28;20024;-78
2021/05/25 09:49:20;;;;;;;10.65;2.58;;;13.80;99.90;;;;;;5083167;28;20169;-78
2021/05/25 09:51:45;;;;;;;;;;;14.20;99.90;;;;;;5081385;28;20024;-78
2021/05/25 09:54:19;;;;;;;13.55;3.03;;;14.80;99.90;;;;;;5080177;28;19908;-77
2021/05/25 09:56:56;;;;;;;10.00;2.22;;;15.30;99.90;;;;;;5074481;28;20025;-77
2021/05/25 09:59:33;;;;;;;9.98;2.88;;;15.30;99.90;;;;;;5076438;28;20033;-78
2021/05/25 10:02:15;;;;;;;8.40;2.13;;;15.20;99.90;;;;;;5073496;28;20056;-78
2021/05/25 10:05:07;;;;;;;9.52;1.85;;;15.10;99.90;;;;;;5060015;28;20033;-80
2021/05/25 10:07:37;;;;;;;6.47;1.70;;;14.60;99.90;;;;;;5074204;28;20040;-82
2021/05/25 10:10:05;;;;;;;5.07;1.90;;;14.30;99.90;;;;;;5072310;28;20028;-80
2021/05/25 10:12:31;;;;;;;4.65;1.23;;;14.10;99.90;;;;;;5070274;28;20446;-80
2021/05/25 10:14:58;;;;;;;8.73;1.70;;;14.80;99.90;;;;;;5066905;28;20045;-80
2021/05/25 10:17:44;;;;;;;6.05;1.23;;;15.50;99.90;;;;;;5095584;28;20029;-81
2021/05/25 10:20:11;;;;;;;4.97;1.63;;;16.30;99.90;;;;;;5071579;28;20032;-81
2021/05/25 10:22:38;;;;;;;8.35;1.67;;;16.70;99.90;;;;;;5073910;28;20029;-81
2021/05/25 10:25:06;;;;;;;9.13;1.67;;;17.10;99.90;;;;;;5062223;28;20048;-80
2021/05/25 10:27:32;;;;;;;5.65;1.80;;;17.10;99.90;;;;;;5071101;28;20036;-80
2021/05/25 10:29:58;;;;;;;9.38;2.65;;;17.20;99.90;;;;;;5074555;28;20100;-80
2021/05/25 10:32:25;;;;;;;7.10;1.60;;;17.60;99.90;;;;;;5059774;28;20068;-81
2021/05/25 10:34:53;;;;;;;;;;;17.20;99.90;;;;;;5072203;28;20358;-82
2021/05/25 10:37:22;;;;;;;4.00;1.20;;;17.10;99.90;;;;;;5065618;28;19908;-80
2021/05/25 10:39:54;;;;;;;5.72;1.35;;;16.70;99.90;;;;;;5070820;28;20444;-81
2021/05/25 10:42:28;;;;;;;6.38;2.35;;;16.30;99.90;;;;;;5072416;28;20385;-79
2021/05/25 10:45:15;;;;;;;4.05;1.50;;;15.70;99.90;;;;;;5069611;28;20448;-79
2021/05/25 10:48:00;;;;;;;6.93;2.28;;;15.00;99.90;;;;;;5061830;28;20024;-80
2021/05/25 10:50:30;;;;;;;4.18;1.95;;;14.80;99.90;;;;;;5060932;28;20063;-80
2021/05/25 10:52:56;;;;;;;6.20;1.30;;;14.80;99.90;;;;;;5054519;28;20104;-79
2021/05/25 10:55:32;;;;;;;9.95;1.15;;;14.60;99.90;;;;;;5069261;28;20059;-78
2021/05/25 10:57:58;;;;;;;2.50;1.02;;;14.30;99.90;;;;;;5069957;28;20030;-78
2021/05/25 11:00:36;;;;;;;11.70;1.88;;;13.90;99.90;;;;;;5072490;28;20108;-79
2021/05/25 11:03:11;;;;;;;6.32;1.25;;;13.70;99.90;;;;;;5072909;28;20028;-79
2021/05/25 11:05:39;;;;;;;1.73;0.90;;;13.70;99.90;;;;;;5073014;28;20021;-81
2021/05/25 11:08:07;;;;;;;5.32;1.65;;;13.90;99.90;;;;;;5074490;28;20025;-80
2021/05/25 11:10:57;;;;;;;3.20;1.52;;;14.00;99.90;;;;;;5074937;28;20415;-79
2021/05/25 11:13:25;;;;;;;3.42;0.95;;;14.20;99.90;;;;;;5071612;28;20423;-79
2021/05/25 11:16:30;;;;;;;1.88;0.80;;;14.60;99.90;;;;;;5072792;28;20020;-79
2021/05/25 11:19:06;;;;;;;6.50;1.25;;;14.90;99.90;;;;;;5067411;28;20120;-79
2021/05/25 11:22:22;;;;;;;3.63;0.70;;;14.80;99.90;;;;;;5072783;28;20028;-80
2021/05/25 11:27:04;;;;;;;3.65;0.90;;;14.60;99.90;;;;;;5074626;28;20040;-79
2021/05/25 11:29:51;;;;;;;4.47;1.30;;;15.00;99.90;;;;;;5073202;28;20029;-79
2021/05/25 11:32:22;;;;;;;5.68;0.70;;;15.20;99.90;;;;;;5073006;28;20028;-80
2021/05/25 11:35:12;;;;;;;3.47;0.70;;;14.70;99.90;;;;;;5064157;28;20492;-80
2021/05/25 11:37:40;;;;;;;4.53;0.98;;;14.30;99.90;;;;;;5048087;28;20041;-79
2021/05/25 11:40:12;;;;;;;;;;;14.40;99.90;;;;;;5059405;28;20081;-80
2021/05/25 11:42:37;;;;;;;6.40;0.95;;;14.40;99.90;;;;;;5074325;28;19905;-80
2021/05/25 11:45:08;;;;;;;1.85;0.57;;;14.30;99.90;;;;;;5071738;28;20488;-80
2021/05/25 11:47:34;;;;;;;3.53;0.70;;;14.30;99.90;;;;;;5067223;28;20033;-80
2021/05/25 11:49:59;;;;;;;6.03;1.27;;;14.20;99.90;;;;;;5060647;28;20028;-80
2021/05/25 11:52:36;;;;;;;3.50;0.50;;;14.30;99.90;;;;;;5076658;28;20036;-80
2021/05/25 11:55:11;;;;;;;4.35;0.90;;;14.10;99.90;;;;;;5075846;28;20473;-79
2021/05/25 11:57:43;;;;;;;5.85;0.65;;;13.90;99.90;;;;;;5078553;28;20031;-81
2021/05/25 12:00:14;;;;;;;5.43;0.68;;;13.70;99.90;;;;;;5078053;28;20081;-80
2021/05/25 12:02:42;;;;;;;0.95;0.20;;;13.50;99.90;;;;;;5079540;28;20020;-79
2021/05/25 12:05:11;;;;;;;;;;;13.40;99.90;;;;;;5078712;28;20040;-81
2021/05/25 12:07:39;;;;;;;3.53;0.55;;;13.40;99.90;;;;;;5075420;28;19908;-80
2021/05/25 12:10:09;;;;;;;2.65;0.65;;;13.50;99.90;;;;;;5074776;28;20040;-79
2021/05/25 12:12:39;;;;;;;2.55;0.73;;;13.30;99.90;;;;;;5096241;28;20052;-80
2021/05/25 12:15:11;;;;;;;3.50;0.50;;;13.20;99.90;;;;;;5099275;28;20027;-78
2021/05/25 12:17:39;;;;;;;3.13;0.50;;;13.20;99.90;;;;;;5097977;28;20036;-80
2021/05/25 12:20:06;;;;;;;1.90;0.65;;;13.10;99.90;;;;;;5081351;28;20021;-81
2021/05/25 12:22:39;;;;;;;5.05;0.55;;;13.10;99.90;;;;;;5089587;28;20024;-80
2021/05/25 12:25:18;;;;;;;1.33;0.68;;;13.00;99.90;;;;;;5081396;28;20044;-79
2021/05/25 12:27:44;;;;;;;1.90;0.60;;;13.10;99.90;;;;;;5083533;28;20047;-80
2021/05/25 12:30:11;;;;;;;2.35;0.70;;;13.10;99.90;;;;;;5093063;28;20063;-80
2021/05/25 12:32:36;;;;;;;4.70;0.93;;;13.10;99.90;;;;;;5068221;28;20032;-78
2021/05/25 12:35:06;;;;;;;5.78;0.73;;;13.20;99.90;;;;;;5060875;28;20505;-80
2021/05/25 12:37:31;;;;;;;4.50;0.82;;;13.30;99.90;;;;;;5060512;28;20029;-80
2021/05/25 12:40:05;;;;;;;3.22;0.55;;;13.30;99.90;;;;;;5069376;28;20032;-78
2021/05/25 12:42:36;;;;;;;2.35;0.80;;;13.10;99.90;;;;;;5078490;28;20419;-79
2021/05/25 12:45:15;;;;;;;1.35;0.80;;;13.20;99.90;;;;;;5058917;28;20140;-80
2021/05/25 12:47:52;;;;;;;2.80;0.60;;;13.60;99.90;;;;;;5066558;28;20036;-80
2021/05/25 12:50:27;;;;;;;2.83;1.02;;;14.20;99.90;;;;;;5076454;28;20021;-81
2021/05/25 12:53:07;;;;;;;1.63;0.70;;;14.50;99.90;;;;;;5076771;28;20031;-81
2021/05/25 12:55:35;;;;;;;2.80;0.55;;;14.40;99.90;;;;;;5056738;28;20098;-81
2021/05/25 12:58:01;;;;;;;3.20;0.47;;;14.20;99.90;;;;;;5056018;28;20112;-81
2021/05/25 13:00:41;;;;;;;1.25;0.60;;;14.10;99.90;;;;;;5074006;28;20503;-80
2021/05/25 13:03:24;;;;;;;3.05;0.77;;;14.20;99.90;;;;;;5075809;28;20500;-81